sensor_id;sensor_type;location;lat;lon;timestamp;temperature;humidity
72320;SHT30;60269;52.502;16.732;2023-10-31T00:02:04;11.78;99.49
72320;SHT30;60269;52.502;16.732;2023-10-31T00:05:36;11.78;99.42
72320;SHT30;60269;52.502;16.732;2023-10-31T00:09:08;11.88;99.27
72320;SHT30;60269;52.502;16.732;2023-10-31T00:12:42;11.89;99.17
72320;SHT30;60269;52.502;16.732;2023-10-31T00:16:14;11.95;99.05
72320;SHT30;60269;52.502;16.732;2023-10-31T00:19:46;11.99;98.85
72320;SHT30;60269;52.502;16.732;2023-10-31T00:23:18;12.09;98.51
72320;SHT30;60269;52.502;16.732;2023-10-31T00:26:51;12.14;98.41
72320;SHT30;60269;52.502;16.732;2023-10-31T00:30:22;12.15;98.24
72320;SHT30;60269;52.502;16.732;2023-10-31T00:33:55;12.19;98.02
72320;SHT30;60269;52.502;16.732;2023-10-31T00:37:27;12.19;98.08
72320;SHT30;60269;52.502;16.732;2023-10-31T00:40:59;12.21;98.17
72320;SHT30;60269;52.502;16.732;2023-10-31T00:44:31;12.22;98.13
72320;SHT30;60269;52.502;16.732;2023-10-31T00:48:03;12.22;98.16
72320;SHT30;60269;52.502;16.732;2023-10-31T00:51:36;12.18;98.14
72320;SHT30;60269;52.502;16.732;2023-10-31T00:55:08;12.25;98.05
72320;SHT30;60269;52.502;16.732;2023-10-31T00:58:39;12.29;98.03
72320;SHT30;60269;52.502;16.732;2023-10-31T01:02:12;12.28;97.96
72320;SHT30;60269;52.502;16.732;2023-10-31T01:05:44;12.30;97.97
72320;SHT30;60269;52.502;16.732;2023-10-31T01:09:16;12.33;97.82
72320;SHT30;60269;52.502;16.732;2023-10-31T01:12:48;12.37;97.79
72320;SHT30;60269;52.502;16.732;2023-10-31T01:16:20;12.39;97.65
72320;SHT30;60269;52.502;16.732;2023-10-31T01:19:52;12.45;97.40
72320;SHT30;60269;52.502;16.732;2023-10-31T01:23:25;12.45;97.42
72320;SHT30;60269;52.502;16.732;2023-10-31T01:26:56;12.43;97.31
72320;SHT30;60269;52.502;16.732;2023-10-31T01:30:29;12.39;97.51
72320;SHT30;60269;52.502;16.732;2023-10-31T01:34:01;12.39;97.63
72320;SHT30;60269;52.502;16.732;2023-10-31T01:37:33;12.37;97.70
72320;SHT30;60269;52.502;16.732;2023-10-31T01:41:05;12.40;97.54
72320;SHT30;60269;52.502;16.732;2023-10-31T01:44:37;12.49;97.31
72320;SHT30;60269;52.502;16.732;2023-10-31T01:48:20;12.57;96.95
72320;SHT30;60269;52.502;16.732;2023-10-31T01:51:52;12.59;96.85
72320;SHT30;60269;52.502;16.732;2023-10-31T01:55:25;12.59;96.86
72320;SHT30;60269;52.502;16.732;2023-10-31T01:58:59;12.55;96.86
72320;SHT30;60269;52.502;16.732;2023-10-31T02:02:32;12.56;96.94
72320;SHT30;60269;52.502;16.732;2023-10-31T02:06:06;12.61;96.90
72320;SHT30;60269;52.502;16.732;2023-10-31T02:09:38;12.66;96.82
72320;SHT30;60269;52.502;16.732;2023-10-31T02:13:11;12.72;96.42
72320;SHT30;60269;52.502;16.732;2023-10-31T02:16:43;12.73;96.61
72320;SHT30;60269;52.502;16.732;2023-10-31T02:20:15;12.79;96.29
72320;SHT30;60269;52.502;16.732;2023-10-31T02:24:03;12.87;96.05
72320;SHT30;60269;52.502;16.732;2023-10-31T02:27:35;12.81;96.20
72320;SHT30;60269;52.502;16.732;2023-10-31T02:31:07;12.81;96.15
72320;SHT30;60269;52.502;16.732;2023-10-31T02:34:39;12.81;96.17
72320;SHT30;60269;52.502;16.732;2023-10-31T02:38:11;12.74;96.38
72320;SHT30;60269;52.502;16.732;2023-10-31T02:41:43;12.74;96.43
72320;SHT30;60269;52.502;16.732;2023-10-31T02:45:15;12.72;96.56
72320;SHT30;60269;52.502;16.732;2023-10-31T02:48:47;12.66;96.94
72320;SHT30;60269;52.502;16.732;2023-10-31T02:52:19;12.61;97.14
72320;SHT30;60269;52.502;16.732;2023-10-31T02:55:51;12.56;97.40
72320;SHT30;60269;52.502;16.732;2023-10-31T02:59:24;12.55;97.49
72320;SHT30;60269;52.502;16.732;2023-10-31T03:02:56;12.57;97.36
72320;SHT30;60269;52.502;16.732;2023-10-31T03:06:29;12.59;97.42
72320;SHT30;60269;52.502;16.732;2023-10-31T03:10:02;12.61;97.30
72320;SHT30;60269;52.502;16.732;2023-10-31T03:13:33;12.68;97.07
72320;SHT30;60269;52.502;16.732;2023-10-31T03:17:05;12.68;96.93
72320;SHT30;60269;52.502;16.732;2023-10-31T03:20:37;12.67;97.07
72320;SHT30;60269;52.502;16.732;2023-10-31T03:24:09;12.67;97.16
72320;SHT30;60269;52.502;16.732;2023-10-31T03:27:41;12.67;97.27
72320;SHT30;60269;52.502;16.732;2023-10-31T03:31:14;12.79;96.87
72320;SHT30;60269;52.502;16.732;2023-10-31T03:34:46;12.93;96.42
72320;SHT30;60269;52.502;16.732;2023-10-31T03:38:18;12.90;96.47
72320;SHT30;60269;52.502;16.732;2023-10-31T03:41:50;12.94;96.51
72320;SHT30;60269;52.502;16.732;2023-10-31T03:45:23;12.88;96.49
72320;SHT30;60269;52.502;16.732;2023-10-31T03:48:54;12.87;96.47
72320;SHT30;60269;52.502;16.732;2023-10-31T03:52:27;12.86;96.73
72320;SHT30;60269;52.502;16.732;2023-10-31T03:55:59;12.90;96.50
72320;SHT30;60269;52.502;16.732;2023-10-31T03:59:32;12.87;96.64
72320;SHT30;60269;52.502;16.732;2023-10-31T04:03:04;12.84;96.71
72320;SHT30;60269;52.502;16.732;2023-10-31T04:06:36;12.84;96.87
72320;SHT30;60269;52.502;16.732;2023-10-31T04:10:11;12.83;97.17
72320;SHT30;60269;52.502;16.732;2023-10-31T04:13:43;12.77;97.60
72320;SHT30;60269;52.502;16.732;2023-10-31T04:17:15;12.67;98.24
72320;SHT30;60269;52.502;16.732;2023-10-31T04:20:47;12.64;98.63
72320;SHT30;60269;52.502;16.732;2023-10-31T04:24:19;12.53;99.07
72320;SHT30;60269;52.502;16.732;2023-10-31T04:27:51;12.50;99.41
72320;SHT30;60269;52.502;16.732;2023-10-31T04:31:23;12.43;99.95
72320;SHT30;60269;52.502;16.732;2023-10-31T04:35:09;12.40;99.99
72320;SHT30;60269;52.502;16.732;2023-10-31T04:38:41;12.39;99.99
72320;SHT30;60269;52.502;16.732;2023-10-31T04:42:13;12.35;99.99
72320;SHT30;60269;52.502;16.732;2023-10-31T04:45:45;12.33;99.99
72320;SHT30;60269;52.502;16.732;2023-10-31T04:49:17;12.35;99.99
72320;SHT30;60269;52.502;16.732;2023-10-31T04:52:49;12.30;99.99
72320;SHT30;60269;52.502;16.732;2023-10-31T04:56:21;12.28;99.99
72320;SHT30;60269;52.502;16.732;2023-10-31T04:59:53;12.28;99.99
72320;SHT30;60269;52.502;16.732;2023-10-31T05:03:26;12.29;99.99
72320;SHT30;60269;52.502;16.732;2023-10-31T05:06:58;12.30;99.99
72320;SHT30;60269;52.502;16.732;2023-10-31T05:10:30;12.32;99.99
72320;SHT30;60269;52.502;16.732;2023-10-31T05:14:02;12.32;99.99
72320;SHT30;60269;52.502;16.732;2023-10-31T05:17:34;12.33;99.99
72320;SHT30;60269;52.502;16.732;2023-10-31T05:21:06;12.35;99.99
72320;SHT30;60269;52.502;16.732;2023-10-31T05:24:38;12.39;99.99
72320;SHT30;60269;52.502;16.732;2023-10-31T05:28:10;12.36;99.99
72320;SHT30;60269;52.502;16.732;2023-10-31T05:31:42;12.35;99.99
72320;SHT30;60269;52.502;16.732;2023-10-31T05:35:15;12.39;99.99
72320;SHT30;60269;52.502;16.732;2023-10-31T05:38:47;12.43;99.99
72320;SHT30;60269;52.502;16.732;2023-10-31T05:42:19;12.43;99.99
72320;SHT30;60269;52.502;16.732;2023-10-31T05:45:52;12.49;99.99
72320;SHT30;60269;52.502;16.732;2023-10-31T05:49:25;12.50;99.99
72320;SHT30;60269;52.502;16.732;2023-10-31T05:52:57;12.50;99.99
72320;SHT30;60269;52.502;16.732;2023-10-31T05:56:29;12.52;99.99
72320;SHT30;60269;52.502;16.732;2023-10-31T06:00:01;12.52;99.99
72320;SHT30;60269;52.502;16.732;2023-10-31T06:03:33;12.55;99.99
72320;SHT30;60269;52.502;16.732;2023-10-31T06:07:06;12.53;99.99
72320;SHT30;60269;52.502;16.732;2023-10-31T06:10:38;12.59;99.99
72320;SHT30;60269;52.502;16.732;2023-10-31T06:14:11;12.64;99.99
72320;SHT30;60269;52.502;16.732;2023-10-31T06:17:43;12.67;99.99
72320;SHT30;60269;52.502;16.732;2023-10-31T06:21:15;12.68;99.99
72320;SHT30;60269;52.502;16.732;2023-10-31T06:24:47;12.70;99.99
72320;SHT30;60269;52.502;16.732;2023-10-31T06:28:19;12.72;99.99
72320;SHT30;60269;52.502;16.732;2023-10-31T06:31:51;12.79;99.99
72320;SHT30;60269;52.502;16.732;2023-10-31T06:35:24;12.79;99.99
72320;SHT30;60269;52.502;16.732;2023-10-31T06:38:59;12.83;99.99
72320;SHT30;60269;52.502;16.732;2023-10-31T06:42:31;12.93;99.99
72320;SHT30;60269;52.502;16.732;2023-10-31T06:46:03;12.97;99.99
72320;SHT30;60269;52.502;16.732;2023-10-31T06:49:36;13.03;99.99
72320;SHT30;60269;52.502;16.732;2023-10-31T06:53:09;13.11;99.99
72320;SHT30;60269;52.502;16.732;2023-10-31T06:56:42;13.12;99.99
72320;SHT30;60269;52.502;16.732;2023-10-31T07:00:14;13.14;99.99
72320;SHT30;60269;52.502;16.732;2023-10-31T07:03:47;13.18;99.99
72320;SHT30;60269;52.502;16.732;2023-10-31T07:07:19;13.15;99.99
72320;SHT30;60269;52.502;16.732;2023-10-31T07:10:51;13.15;99.99
72320;SHT30;60269;52.502;16.732;2023-10-31T07:14:23;13.12;99.99
72320;SHT30;60269;52.502;16.732;2023-10-31T07:17:56;13.11;99.99
72320;SHT30;60269;52.502;16.732;2023-10-31T07:21:28;13.08;99.99
72320;SHT30;60269;52.502;16.732;2023-10-31T07:25:00;13.07;99.99
72320;SHT30;60269;52.502;16.732;2023-10-31T07:28:34;13.05;99.99
72320;SHT30;60269;52.502;16.732;2023-10-31T07:32:08;13.01;99.99
72320;SHT30;60269;52.502;16.732;2023-10-31T07:35:41;13.01;99.99
72320;SHT30;60269;52.502;16.732;2023-10-31T07:39:14;13.00;99.99
72320;SHT30;60269;52.502;16.732;2023-10-31T07:42:46;12.94;99.99
72320;SHT30;60269;52.502;16.732;2023-10-31T07:46:18;12.94;99.99
72320;SHT30;60269;52.502;16.732;2023-10-31T07:49:50;12.94;99.99
72320;SHT30;60269;52.502;16.732;2023-10-31T07:53:23;12.91;99.99
72320;SHT30;60269;52.502;16.732;2023-10-31T07:56:55;12.84;99.99
72320;SHT30;60269;52.502;16.732;2023-10-31T08:00:27;12.80;99.99
72320;SHT30;60269;52.502;16.732;2023-10-31T08:03:59;12.80;99.99
72320;SHT30;60269;52.502;16.732;2023-10-31T08:07:31;12.80;99.99
72320;SHT30;60269;52.502;16.732;2023-10-31T08:11:07;12.80;99.99
72320;SHT30;60269;52.502;16.732;2023-10-31T08:14:40;12.81;99.99
72320;SHT30;60269;52.502;16.732;2023-10-31T08:18:12;12.83;99.99
72320;SHT30;60269;52.502;16.732;2023-10-31T08:21:44;12.81;99.99
72320;SHT30;60269;52.502;16.732;2023-10-31T08:25:16;12.80;99.99
72320;SHT30;60269;52.502;16.732;2023-10-31T08:28:48;12.77;99.99
72320;SHT30;60269;52.502;16.732;2023-10-31T08:32:20;12.77;99.99
72320;SHT30;60269;52.502;16.732;2023-10-31T08:35:54;12.74;99.99
72320;SHT30;60269;52.502;16.732;2023-10-31T08:39:26;12.76;99.99
72320;SHT30;60269;52.502;16.732;2023-10-31T08:42:58;12.80;99.90
72320;SHT30;60269;52.502;16.732;2023-10-31T08:46:30;12.81;99.76
72320;SHT30;60269;52.502;16.732;2023-10-31T08:50:02;12.77;99.54
72320;SHT30;60269;52.502;16.732;2023-10-31T08:53:34;12.73;99.77
72320;SHT30;60269;52.502;16.732;2023-10-31T08:57:06;12.80;99.56
72320;SHT30;60269;52.502;16.732;2023-10-31T09:00:39;12.97;98.61
72320;SHT30;60269;52.502;16.732;2023-10-31T09:04:13;13.10;97.95
72320;SHT30;60269;52.502;16.732;2023-10-31T09:07:48;13.10;97.77
72320;SHT30;60269;52.502;16.732;2023-10-31T09:11:20;13.12;97.23
72320;SHT30;60269;52.502;16.732;2023-10-31T09:14:52;13.14;97.48
72320;SHT30;60269;52.502;16.732;2023-10-31T09:18:24;13.15;97.68
72320;SHT30;60269;52.502;16.732;2023-10-31T09:21:56;13.12;97.05
72320;SHT30;60269;52.502;16.732;2023-10-31T09:25:28;13.15;96.87
72320;SHT30;60269;52.502;16.732;2023-10-31T09:29:01;13.18;96.65
72320;SHT30;60269;52.502;16.732;2023-10-31T09:32:34;13.21;96.46
72320;SHT30;60269;52.502;16.732;2023-10-31T09:36:06;13.22;96.23
72320;SHT30;60269;52.502;16.732;2023-10-31T09:39:38;13.21;96.05
72320;SHT30;60269;52.502;16.732;2023-10-31T09:43:10;13.22;96.09
72320;SHT30;60269;52.502;16.732;2023-10-31T09:46:43;13.22;95.73
72320;SHT30;60269;52.502;16.732;2023-10-31T09:50:15;13.29;95.63
72320;SHT30;60269;52.502;16.732;2023-10-31T09:53:50;13.25;95.56
72320;SHT30;60269;52.502;16.732;2023-10-31T09:57:25;13.24;95.86
72320;SHT30;60269;52.502;16.732;2023-10-31T10:00:58;13.19;96.27
72320;SHT30;60269;52.502;16.732;2023-10-31T10:04:30;13.18;96.11
72320;SHT30;60269;52.502;16.732;2023-10-31T10:08:03;13.19;96.28
72320;SHT30;60269;52.502;16.732;2023-10-31T10:11:36;13.18;96.18
72320;SHT30;60269;52.502;16.732;2023-10-31T10:15:08;13.28;96.01
72320;SHT30;60269;52.502;16.732;2023-10-31T10:18:41;13.26;96.10
72320;SHT30;60269;52.502;16.732;2023-10-31T10:22:13;13.25;96.20
72320;SHT30;60269;52.502;16.732;2023-10-31T10:25:49;13.18;96.56
72320;SHT30;60269;52.502;16.732;2023-10-31T10:29:24;13.19;96.17
72320;SHT30;60269;52.502;16.732;2023-10-31T10:32:58;13.18;96.35
72320;SHT30;60269;52.502;16.732;2023-10-31T10:36:33;13.16;96.62
72320;SHT30;60269;52.502;16.732;2023-10-31T10:40:06;13.19;96.31
72320;SHT30;60269;52.502;16.732;2023-10-31T10:43:40;13.14;96.28
72320;SHT30;60269;52.502;16.732;2023-10-31T10:47:13;13.08;96.74
72320;SHT30;60269;52.502;16.732;2023-10-31T10:50:54;12.97;97.52
72320;SHT30;60269;52.502;16.732;2023-10-31T10:54:40;12.81;98.49
72320;SHT30;60269;52.502;16.732;2023-10-31T11:02:08;12.64;99.99
72320;SHT30;60269;52.502;16.732;2023-10-31T11:05:43;12.61;99.99
72320;SHT30;60269;52.502;16.732;2023-10-31T11:09:15;12.63;99.99
72320;SHT30;60269;52.502;16.732;2023-10-31T11:12:47;12.72;99.93
72320;SHT30;60269;52.502;16.732;2023-10-31T11:16:44;12.64;99.91
72320;SHT30;60269;52.502;16.732;2023-10-31T11:20:18;12.55;99.99
72320;SHT30;60269;52.502;16.732;2023-10-31T11:23:58;12.52;98.93
72320;SHT30;60269;52.502;16.732;2023-10-31T11:27:34;12.52;98.34
72320;SHT30;60269;52.502;16.732;2023-10-31T11:31:08;12.42;97.81
72320;SHT30;60269;52.502;16.732;2023-10-31T11:34:41;12.33;95.88
72320;SHT30;60269;52.502;16.732;2023-10-31T11:38:14;12.36;95.42
72320;SHT30;60269;52.502;16.732;2023-10-31T11:41:50;12.47;93.67
72320;SHT30;60269;52.502;16.732;2023-10-31T11:45:25;12.35;93.40
72320;SHT30;60269;52.502;16.732;2023-10-31T11:48:58;12.43;93.09
72320;SHT30;60269;52.502;16.732;2023-10-31T11:52:32;12.50;92.39
72320;SHT30;60269;52.502;16.732;2023-10-31T11:56:04;12.77;91.09
72320;SHT30;60269;52.502;16.732;2023-10-31T11:59:40;13.28;86.79
72320;SHT30;60269;52.502;16.732;2023-10-31T12:03:11;13.52;83.12
72320;SHT30;60269;52.502;16.732;2023-10-31T12:06:44;13.61;81.88
72320;SHT30;60269;52.502;16.732;2023-10-31T12:10:27;13.16;83.59
72320;SHT30;60269;52.502;16.732;2023-10-31T12:14:02;12.90;83.87
72320;SHT30;60269;52.502;16.732;2023-10-31T12:17:37;12.94;84.26
72320;SHT30;60269;52.502;16.732;2023-10-31T12:21:09;12.97;84.66
72320;SHT30;60269;52.502;16.732;2023-10-31T12:24:46;12.77;85.08
72320;SHT30;60269;52.502;16.732;2023-10-31T12:28:23;12.60;85.12
72320;SHT30;60269;52.502;16.732;2023-10-31T12:31:55;12.59;85.28
72320;SHT30;60269;52.502;16.732;2023-10-31T12:35:29;12.56;85.94
72320;SHT30;60269;52.502;16.732;2023-10-31T12:39:02;12.57;86.28
72320;SHT30;60269;52.502;16.732;2023-10-31T12:42:36;12.64;86.28
72320;SHT30;60269;52.502;16.732;2023-10-31T12:46:27;12.80;84.76
72320;SHT30;60269;52.502;16.732;2023-10-31T12:50:12;12.94;84.43
72320;SHT30;60269;52.502;16.732;2023-10-31T12:53:51;13.34;84.14
72320;SHT30;60269;52.502;16.732;2023-10-31T12:57:23;13.04;84.46
72320;SHT30;60269;52.502;16.732;2023-10-31T13:00:56;12.93;85.40
72320;SHT30;60269;52.502;16.732;2023-10-31T13:04:29;12.94;85.18
72320;SHT30;60269;52.502;16.732;2023-10-31T13:08:02;12.87;85.94
72320;SHT30;60269;52.502;16.732;2023-10-31T13:11:40;12.97;85.67
72320;SHT30;60269;52.502;16.732;2023-10-31T13:15:18;13.08;85.15
72320;SHT30;60269;52.502;16.732;2023-10-31T13:18:51;12.90;85.39
72320;SHT30;60269;52.502;16.732;2023-10-31T13:22:23;12.77;86.11
72320;SHT30;60269;52.502;16.732;2023-10-31T13:25:55;12.68;86.25
72320;SHT30;60269;52.502;16.732;2023-10-31T13:29:27;12.63;87.20
72320;SHT30;60269;52.502;16.732;2023-10-31T13:32:59;12.66;86.94
72320;SHT30;60269;52.502;16.732;2023-10-31T13:36:31;12.77;84.29
72320;SHT30;60269;52.502;16.732;2023-10-31T13:40:03;12.83;82.74
72320;SHT30;60269;52.502;16.732;2023-10-31T13:43:36;12.81;83.74
72320;SHT30;60269;52.502;16.732;2023-10-31T13:47:09;12.81;84.30
72320;SHT30;60269;52.502;16.732;2023-10-31T13:50:41;12.72;85.04
72320;SHT30;60269;52.502;16.732;2023-10-31T13:54:13;12.67;84.89
72320;SHT30;60269;52.502;16.732;2023-10-31T13:57:45;12.63;85.67
72320;SHT30;60269;52.502;16.732;2023-10-31T14:01:17;12.57;86.07
72320;SHT30;60269;52.502;16.732;2023-10-31T14:04:51;12.60;85.65
72320;SHT30;60269;52.502;16.732;2023-10-31T14:08:23;12.70;84.33
72320;SHT30;60269;52.502;16.732;2023-10-31T14:11:55;12.77;83.38
72320;SHT30;60269;52.502;16.732;2023-10-31T14:15:27;12.77;83.22
72320;SHT30;60269;52.502;16.732;2023-10-31T14:18:59;12.74;83.88
72320;SHT30;60269;52.502;16.732;2023-10-31T14:22:33;12.81;82.67
72320;SHT30;60269;52.502;16.732;2023-10-31T14:26:05;12.73;83.39
72320;SHT30;60269;52.502;16.732;2023-10-31T14:29:37;12.70;82.92
72320;SHT30;60269;52.502;16.732;2023-10-31T14:33:09;12.70;82.92
72320;SHT30;60269;52.502;16.732;2023-10-31T14:36:41;12.72;82.66
72320;SHT30;60269;52.502;16.732;2023-10-31T14:40:14;12.63;83.92
72320;SHT30;60269;52.502;16.732;2023-10-31T14:43:46;12.52;84.34
72320;SHT30;60269;52.502;16.732;2023-10-31T14:47:18;12.60;82.50
72320;SHT30;60269;52.502;16.732;2023-10-31T14:50:50;12.63;81.88
72320;SHT30;60269;52.502;16.732;2023-10-31T14:54:22;12.57;82.38
72320;SHT30;60269;52.502;16.732;2023-10-31T14:57:54;12.57;82.15
72320;SHT30;60269;52.502;16.732;2023-10-31T15:01:26;12.56;82.09
72320;SHT30;60269;52.502;16.732;2023-10-31T15:04:58;12.40;82.87
72320;SHT30;60269;52.502;16.732;2023-10-31T15:08:30;12.35;83.11
72320;SHT30;60269;52.502;16.732;2023-10-31T15:12:02;12.39;81.00
72320;SHT30;60269;52.502;16.732;2023-10-31T15:15:34;12.35;81.32
72320;SHT30;60269;52.502;16.732;2023-10-31T15:19:09;12.28;81.61
72320;SHT30;60269;52.502;16.732;2023-10-31T15:22:41;12.33;81.38
72320;SHT30;60269;52.502;16.732;2023-10-31T15:26:13;12.26;82.25
72320;SHT30;60269;52.502;16.732;2023-10-31T15:29:47;12.25;82.33
72320;SHT30;60269;52.502;16.732;2023-10-31T15:33:24;12.19;82.49
72320;SHT30;60269;52.502;16.732;2023-10-31T15:36:56;12.12;83.43
72320;SHT30;60269;52.502;16.732;2023-10-31T15:40:28;12.05;83.52
72320;SHT30;60269;52.502;16.732;2023-10-31T15:44:00;12.02;83.59
72320;SHT30;60269;52.502;16.732;2023-10-31T15:47:32;12.04;83.18
72320;SHT30;60269;52.502;16.732;2023-10-31T15:51:04;12.05;82.75
72320;SHT30;60269;52.502;16.732;2023-10-31T15:54:36;11.95;82.67
72320;SHT30;60269;52.502;16.732;2023-10-31T15:58:08;11.85;83.18
72320;SHT30;60269;52.502;16.732;2023-10-31T16:01:40;11.70;83.67
72320;SHT30;60269;52.502;16.732;2023-10-31T16:05:14;11.61;83.82
72320;SHT30;60269;52.502;16.732;2023-10-31T16:08:46;11.67;83.46
72320;SHT30;60269;52.502;16.732;2023-10-31T16:12:18;11.71;82.62
72320;SHT30;60269;52.502;16.732;2023-10-31T16:15:50;11.77;82.29
72320;SHT30;60269;52.502;16.732;2023-10-31T16:19:23;11.75;82.47
72320;SHT30;60269;52.502;16.732;2023-10-31T16:22:54;11.70;82.67
72320;SHT30;60269;52.502;16.732;2023-10-31T16:26:27;11.53;83.78
72320;SHT30;60269;52.502;16.732;2023-10-31T16:29:59;11.44;84.09
72320;SHT30;60269;52.502;16.732;2023-10-31T16:33:31;11.56;83.17
72320;SHT30;60269;52.502;16.732;2023-10-31T16:37:04;11.53;83.74
72320;SHT30;60269;52.502;16.732;2023-10-31T16:40:36;11.36;84.89
72320;SHT30;60269;52.502;16.732;2023-10-31T16:44:09;11.30;85.32
72320;SHT30;60269;52.502;16.732;2023-10-31T16:47:41;11.22;86.19
72320;SHT30;60269;52.502;16.732;2023-10-31T16:51:17;11.26;85.70
72320;SHT30;60269;52.502;16.732;2023-10-31T16:54:49;11.33;85.43
72320;SHT30;60269;52.502;16.732;2023-10-31T16:58:21;11.33;85.94
72320;SHT30;60269;52.502;16.732;2023-10-31T17:01:53;11.22;86.51
72320;SHT30;60269;52.502;16.732;2023-10-31T17:05:25;11.16;86.49
72320;SHT30;60269;52.502;16.732;2023-10-31T17:08:57;11.19;85.71
72320;SHT30;60269;52.502;16.732;2023-10-31T17:12:29;11.36;84.99
72320;SHT30;60269;52.502;16.732;2023-10-31T17:16:02;11.36;85.01
72320;SHT30;60269;52.502;16.732;2023-10-31T17:19:35;11.34;85.16
72320;SHT30;60269;52.502;16.732;2023-10-31T17:23:07;11.40;84.85
72320;SHT30;60269;52.502;16.732;2023-10-31T17:26:39;11.44;84.37
72320;SHT30;60269;52.502;16.732;2023-10-31T17:30:11;11.40;84.53
72320;SHT30;60269;52.502;16.732;2023-10-31T17:33:45;11.47;83.84
72320;SHT30;60269;52.502;16.732;2023-10-31T17:37:17;11.54;83.18
72320;SHT30;60269;52.502;16.732;2023-10-31T17:40:49;11.46;83.66
72320;SHT30;60269;52.502;16.732;2023-10-31T17:44:22;11.34;84.36
72320;SHT30;60269;52.502;16.732;2023-10-31T17:47:54;11.29;84.82
72320;SHT30;60269;52.502;16.732;2023-10-31T17:51:28;11.24;85.19
72320;SHT30;60269;52.502;16.732;2023-10-31T17:55:00;11.27;85.27
72320;SHT30;60269;52.502;16.732;2023-10-31T17:58:35;11.23;85.61
72320;SHT30;60269;52.502;16.732;2023-10-31T18:02:07;11.22;86.08
72320;SHT30;60269;52.502;16.732;2023-10-31T18:05:39;11.15;86.90
72320;SHT30;60269;52.502;16.732;2023-10-31T18:09:12;11.08;87.10
72320;SHT30;60269;52.502;16.732;2023-10-31T18:12:44;11.06;86.58
72320;SHT30;60269;52.502;16.732;2023-10-31T18:16:19;10.99;86.74
72320;SHT30;60269;52.502;16.732;2023-10-31T18:19:51;11.12;86.10
72320;SHT30;60269;52.502;16.732;2023-10-31T18:23:23;11.10;86.63
72320;SHT30;60269;52.502;16.732;2023-10-31T18:26:55;11.08;87.05
72320;SHT30;60269;52.502;16.732;2023-10-31T18:30:28;11.06;87.24
72320;SHT30;60269;52.502;16.732;2023-10-31T18:34:00;11.06;87.11
72320;SHT30;60269;52.502;16.732;2023-10-31T18:37:34;11.06;87.44
72320;SHT30;60269;52.502;16.732;2023-10-31T18:41:06;11.08;87.35
72320;SHT30;60269;52.502;16.732;2023-10-31T18:44:38;11.08;87.27
72320;SHT30;60269;52.502;16.732;2023-10-31T18:48:22;11.02;87.47
72320;SHT30;60269;52.502;16.732;2023-10-31T18:51:55;10.99;86.48
72320;SHT30;60269;52.502;16.732;2023-10-31T18:55:27;11.01;86.09
72320;SHT30;60269;52.502;16.732;2023-10-31T18:58:59;10.99;84.78
72320;SHT30;60269;52.502;16.732;2023-10-31T19:02:33;10.96;85.16
72320;SHT30;60269;52.502;16.732;2023-10-31T19:06:09;10.85;85.00
72320;SHT30;60269;52.502;16.732;2023-10-31T19:09:41;10.72;85.82
72320;SHT30;60269;52.502;16.732;2023-10-31T19:13:14;10.51;86.92
72320;SHT30;60269;52.502;16.732;2023-10-31T19:16:46;10.37;86.92
72320;SHT30;60269;52.502;16.732;2023-10-31T19:20:18;10.29;87.35
72320;SHT30;60269;52.502;16.732;2023-10-31T19:23:50;10.14;87.39
72320;SHT30;60269;52.502;16.732;2023-10-31T19:27:22;10.07;87.59
72320;SHT30;60269;52.502;16.732;2023-10-31T19:30:55;10.06;87.33
72320;SHT30;60269;52.502;16.732;2023-10-31T19:34:27;9.96;87.56
72320;SHT30;60269;52.502;16.732;2023-10-31T19:37:59;9.87;88.03
72320;SHT30;60269;52.502;16.732;2023-10-31T19:41:32;9.86;88.06
72320;SHT30;60269;52.502;16.732;2023-10-31T19:45:04;9.82;88.23
72320;SHT30;60269;52.502;16.732;2023-10-31T19:48:37;9.81;88.54
72320;SHT30;60269;52.502;16.732;2023-10-31T19:52:11;9.87;88.30
72320;SHT30;60269;52.502;16.732;2023-10-31T19:55:43;9.93;88.18
72320;SHT30;60269;52.502;16.732;2023-10-31T19:59:15;10.00;87.96
72320;SHT30;60269;52.502;16.732;2023-10-31T20:02:47;9.93;88.26
72320;SHT30;60269;52.502;16.732;2023-10-31T20:06:21;9.86;88.24
72320;SHT30;60269;52.502;16.732;2023-10-31T20:09:53;9.76;88.69
72320;SHT30;60269;52.502;16.732;2023-10-31T20:13:25;9.78;88.38
72320;SHT30;60269;52.502;16.732;2023-10-31T20:16:57;9.87;87.60
72320;SHT30;60269;52.502;16.732;2023-10-31T20:20:29;9.90;87.41
72320;SHT30;60269;52.502;16.732;2023-10-31T20:24:02;9.90;87.78
72320;SHT30;60269;52.502;16.732;2023-10-31T20:27:34;9.87;87.99
72320;SHT30;60269;52.502;16.732;2023-10-31T20:31:07;9.85;88.34
72320;SHT30;60269;52.502;16.732;2023-10-31T20:34:39;9.86;88.62
72320;SHT30;60269;52.502;16.732;2023-10-31T20:38:11;9.93;88.56
72320;SHT30;60269;52.502;16.732;2023-10-31T20:41:43;9.97;88.61
72320;SHT30;60269;52.502;16.732;2023-10-31T20:45:15;10.00;89.03
72320;SHT30;60269;52.502;16.732;2023-10-31T20:48:48;9.93;89.30
72320;SHT30;60269;52.502;16.732;2023-10-31T20:52:20;9.78;91.14
72320;SHT30;60269;52.502;16.732;2023-10-31T20:55:51;9.52;93.12
72320;SHT30;60269;52.502;16.732;2023-10-31T20:59:24;9.45;93.81
72320;SHT30;60269;52.502;16.732;2023-10-31T21:02:55;9.48;94.01
72320;SHT30;60269;52.502;16.732;2023-10-31T21:06:36;9.41;94.59
72320;SHT30;60269;52.502;16.732;2023-10-31T21:10:09;9.39;95.46
72320;SHT30;60269;52.502;16.732;2023-10-31T21:13:42;9.24;96.88
72320;SHT30;60269;52.502;16.732;2023-10-31T21:17:14;9.13;97.75
72320;SHT30;60269;52.502;16.732;2023-10-31T21:20:46;9.08;98.30
72320;SHT30;60269;52.502;16.732;2023-10-31T21:24:18;9.08;98.57
72320;SHT30;60269;52.502;16.732;2023-10-31T21:27:50;9.06;99.16
72320;SHT30;60269;52.502;16.732;2023-10-31T21:31:23;9.03;99.71
72320;SHT30;60269;52.502;16.732;2023-10-31T21:34:55;8.96;99.99
72320;SHT30;60269;52.502;16.732;2023-10-31T21:38:27;8.99;99.99
72320;SHT30;60269;52.502;16.732;2023-10-31T21:42:00;8.97;99.99
72320;SHT30;60269;52.502;16.732;2023-10-31T21:45:31;9.00;99.99
72320;SHT30;60269;52.502;16.732;2023-10-31T21:49:04;9.01;99.99
72320;SHT30;60269;52.502;16.732;2023-10-31T21:52:35;9.04;99.99
72320;SHT30;60269;52.502;16.732;2023-10-31T21:56:08;9.01;99.99
72320;SHT30;60269;52.502;16.732;2023-10-31T21:59:40;9.03;99.99
72320;SHT30;60269;52.502;16.732;2023-10-31T22:03:12;8.99;99.99
72320;SHT30;60269;52.502;16.732;2023-10-31T22:06:46;9.01;99.99
72320;SHT30;60269;52.502;16.732;2023-10-31T22:10:18;9.00;99.99